Cullom, Illinois
Current Conditions -  °F | °C
As of 4:15 PM on Tuesday 21 Oct 2014 (Local Time) from KIKK Reporting Station
Overcast Overcast  
Wind Chill: 52°   Ceiling: 3100
Heat Index: 52°   Visibility: 10mi
Dew Point: 42°   Wind: 12mph
Humidity: 68%   Direction: 10°N
Pressure: 30.18"   Gusts: NA
Location:  40.88°N, 88.27°W
Report Text: KIKK 212115Z AUTO 01010KT 10SM OVC031 11/05 A3018 RMK AO2 T01100054
Loading
Personal Weather Stations






























Interactive Weather Map
Tropical Storm Tracking
New forecast layout! Learn more

10-Day Weather Forecast

Advertisements
Track Severe Weather on mobile